Impacts TAF Board INFO
FOR SITUATIONAL AWARENESS. NOT TO BE USED FOR FLIGHT PLANNING PURPOSES.
IDs:

KMCO - Orlando Intl, FL, US

Issued at 1738 UTC 22 May 2018
Updated at 1743 UTC 22 May 2018
Potential Impact None Slight Moderate High
Time1653Z 22/18Z 22/19Z 22/20Z 22/21Z 22/22Z 22/23Z 23/00Z 23/01Z 23/02Z 23/03Z 23/04Z 23/05Z 23/06Z>>
Type OBS PRVL PRVL
  [TEMP]  
PRVL
  [TEMP]  
PRVL PRVL PRVL PRVL PRVL PRVL PRVL PRVL PRVL PRVL
VIS 10 >6 >6
  [3]  
>6
  [3]  
>6 >6 >6 >6 >6 >6 >6 >6 >6 >6
CIG 85 90 100
  [25]  
100
  [25]  
100 100 100 100 100 100 100 100 100 100
Cover OVC OVC BKN
  [BKN]  
BKN
  [BKN]  
BKN BKN BKN OVC OVC OVC OVC OVC OVC OVC
FltCat VFR VFR VFR
  [MVFR]  
VFR
  [MVFR]  
VFR VFR VFR VFR VFR VFR VFR VFR VFR VFR
WX -- VCSH VCTS
  [SHRA]  
VCTS
  [SHRA]  
VCTS VCTS VCTS -- -- -- -- -- -- --
WDir 140 130 120
[120]
120
[120]
120 120 120 120 120 120 120 120 120 120
WSpd 7 8 10
  [10]  
10
  [10]  
10 10 10 5 5 5 5 5 5 5
WGst -- -- --
  [--]  
--
  [--]  
-- -- -- -- -- -- -- -- -- --

Raw TAF
KMCO 221738Z 2218/2324 13008KT P6SM VCSH FEW025 SCT060 OVC090
  FM221900 12010KT P6SM VCTS SCT040CB BKN100
  TEMPO 2219/2221 3SM SHRA BKN025
  FM230000 12005KT P6SM FEW030 BKN100 OVC250
  FM231400 13006KT P6SM SCT025 SCT100 BKN250
  FM231800 12008KT P6SM VCSH BKN050


Raw METAR
KMCO 221653Z 14007KT 10SM FEW025 SCT065 OVC085 26/21 A3012 RMK AO2 SLP197 T02560211 $
KMCO 221553Z 14008KT 10SM FEW025 SCT060 BKN095 26/18 A3013 RMK AO2 SLP201 T02560183 $
KMCO 221453Z 13007KT 10SM FEW046 SCT060 BKN080 25/20 A3013 RMK AO2 SLP200 T02500200 51014 $

METAR Board
Radar Display
Forecast Discussion

FOR SITUATIONAL AWARENESS. NOT TO BE USED FOR FLIGHT PLANNING PURPOSES.